sensor_id;sensor_type;location;lat;lon;timestamp;pressure;altitude;pressure_sealevel;temperature;humidity
48964;BME280;34776;48.180;16.420;2023-04-16T00:00:21;99547.53;;;6.77;84.40
48964;BME280;34776;48.180;16.420;2023-04-16T00:02:47;99539.66;;;6.75;84.29
48964;BME280;34776;48.180;16.420;2023-04-16T00:05:13;99541.53;;;6.71;84.71
48964;BME280;34776;48.180;16.420;2023-04-16T00:07:38;99536.44;;;6.67;84.48
48964;BME280;34776;48.180;16.420;2023-04-16T00:10:05;99536.66;;;6.62;84.63
48964;BME280;34776;48.180;16.420;2023-04-16T00:12:31;99535.84;;;6.60;84.83
48964;BME280;34776;48.180;16.420;2023-04-16T00:14:56;99531.41;;;6.61;85.04
48964;BME280;34776;48.180;16.420;2023-04-16T00:17:21;99536.75;;;6.59;85.11
48964;BME280;34776;48.180;16.420;2023-04-16T00:19:47;99528.97;;;6.56;85.06
48964;BME280;34776;48.180;16.420;2023-04-16T00:22:12;99528.16;;;6.54;84.98
48964;BME280;34776;48.180;16.420;2023-04-16T00:24:37;99532.63;;;6.52;85.08
48964;BME280;34776;48.180;16.420;2023-04-16T00:27:03;99529.19;;;6.50;85.10
48964;BME280;34776;48.180;16.420;2023-04-16T00:29:28;99539.75;;;6.50;85.07
48964;BME280;34776;48.180;16.420;2023-04-16T00:31:55;99537.06;;;6.52;85.28
48964;BME280;34776;48.180;16.420;2023-04-16T00:34:20;99548.25;;;6.58;85.31
48964;BME280;34776;48.180;16.420;2023-04-16T00:36:45;99540.03;;;6.66;85.23
48964;BME280;34776;48.180;16.420;2023-04-16T00:39:11;99538.91;;;6.71;84.79
48964;BME280;34776;48.180;16.420;2023-04-16T00:41:37;99544.97;;;6.74;84.71
48964;BME280;34776;48.180;16.420;2023-04-16T00:44:02;99549.59;;;6.68;84.60
48964;BME280;34776;48.180;16.420;2023-04-16T00:46:28;99552.47;;;6.62;84.52
48964;BME280;34776;48.180;16.420;2023-04-16T00:48:53;99550.09;;;6.56;84.41
48964;BME280;34776;48.180;16.420;2023-04-16T00:51:19;99552.84;;;6.53;84.71
48964;BME280;34776;48.180;16.420;2023-04-16T00:53:46;99547.63;;;6.52;84.72
48964;BME280;34776;48.180;16.420;2023-04-16T00:56:11;99552.84;;;6.53;84.83
48964;BME280;34776;48.180;16.420;2023-04-16T00:58:37;99557.34;;;6.51;84.88
48964;BME280;34776;48.180;16.420;2023-04-16T01:01:02;99554.97;;;6.43;84.50
48964;BME280;34776;48.180;16.420;2023-04-16T01:03:38;99556.19;;;6.35;84.72
48964;BME280;34776;48.180;16.420;2023-04-16T01:06:04;99559.06;;;6.28;84.70
48964;BME280;34776;48.180;16.420;2023-04-16T01:08:30;99572.59;;;6.19;84.80
48964;BME280;34776;48.180;16.420;2023-04-16T01:10:55;99572.88;;;6.12;84.86
48964;BME280;34776;48.180;16.420;2023-04-16T01:13:20;99574.78;;;6.08;85.26
48964;BME280;34776;48.180;16.420;2023-04-16T01:15:46;99572.09;;;6.09;85.49
48964;BME280;34776;48.180;16.420;2023-04-16T01:18:15;99572.19;;;6.06;85.61
48964;BME280;34776;48.180;16.420;2023-04-16T01:20:41;99569.63;;;6.05;85.71
48964;BME280;34776;48.180;16.420;2023-04-16T01:23:07;99568.00;;;6.01;85.64
48964;BME280;34776;48.180;16.420;2023-04-16T01:25:32;99569.03;;;5.97;85.88
48964;BME280;34776;48.180;16.420;2023-04-16T01:27:58;99574.38;;;5.94;85.75
48964;BME280;34776;48.180;16.420;2023-04-16T01:30:24;99575.31;;;5.93;85.99
48964;BME280;34776;48.180;16.420;2023-04-16T01:32:49;99579.78;;;5.90;85.88
48964;BME280;34776;48.180;16.420;2023-04-16T01:35:15;99586.06;;;5.86;86.10
48964;BME280;34776;48.180;16.420;2023-04-16T01:37:42;99588.13;;;5.78;85.93
48964;BME280;34776;48.180;16.420;2023-04-16T01:40:08;99586.59;;;5.71;86.12
48964;BME280;34776;48.180;16.420;2023-04-16T01:42:33;99586.84;;;5.65;86.19
48964;BME280;34776;48.180;16.420;2023-04-16T01:44:58;99585.31;;;5.58;86.06
48964;BME280;34776;48.180;16.420;2023-04-16T01:47:24;99580.25;;;5.52;86.25
48964;BME280;34776;48.180;16.420;2023-04-16T01:49:49;99585.72;;;5.45;86.42
48964;BME280;34776;48.180;16.420;2023-04-16T01:52:15;99597.34;;;5.40;86.61
48964;BME280;34776;48.180;16.420;2023-04-16T01:54:40;99594.84;;;5.35;86.66
48964;BME280;34776;48.180;16.420;2023-04-16T01:57:06;99588.84;;;5.32;86.70
48964;BME280;34776;48.180;16.420;2023-04-16T01:59:31;99589.91;;;5.26;86.92
48964;BME280;34776;48.180;16.420;2023-04-16T02:02:02;99600.56;;;5.23;87.14
48964;BME280;34776;48.180;16.420;2023-04-16T02:04:31;99597.09;;;5.21;87.30
48964;BME280;34776;48.180;16.420;2023-04-16T02:06:56;99597.31;;;5.15;87.37
48964;BME280;34776;48.180;16.420;2023-04-16T02:09:22;99600.94;;;5.11;87.25
48964;BME280;34776;48.180;16.420;2023-04-16T02:11:47;99597.53;;;5.07;87.17
48964;BME280;34776;48.180;16.420;2023-04-16T02:14:12;99592.31;;;5.05;87.30
48964;BME280;34776;48.180;16.420;2023-04-16T02:16:38;99595.91;;;5.03;87.31
48964;BME280;34776;48.180;16.420;2023-04-16T02:19:03;99599.53;;;5.00;87.67
48964;BME280;34776;48.180;16.420;2023-04-16T02:21:28;99597.78;;;4.99;87.81
48964;BME280;34776;48.180;16.420;2023-04-16T02:23:54;99601.34;;;4.98;87.83
48964;BME280;34776;48.180;16.420;2023-04-16T02:26:19;99598.75;;;4.97;87.58
48964;BME280;34776;48.180;16.420;2023-04-16T02:28:44;99597.91;;;4.96;87.77
48964;BME280;34776;48.180;16.420;2023-04-16T02:31:10;99597.09;;;4.94;87.77
48964;BME280;34776;48.180;16.420;2023-04-16T02:33:35;99599.72;;;4.94;87.92
48964;BME280;34776;48.180;16.420;2023-04-16T02:36:00;99605.88;;;4.93;87.85
48964;BME280;34776;48.180;16.420;2023-04-16T02:38:26;99599.78;;;4.91;87.98
48964;BME280;34776;48.180;16.420;2023-04-16T02:40:51;99596.34;;;4.89;88.02
48964;BME280;34776;48.180;16.420;2023-04-16T02:43:16;99604.31;;;4.87;88.03
48964;BME280;34776;48.180;16.420;2023-04-16T02:45:42;99607.88;;;4.85;87.93
48964;BME280;34776;48.180;16.420;2023-04-16T02:48:08;99609.69;;;4.83;87.95
48964;BME280;34776;48.180;16.420;2023-04-16T02:50:34;99610.63;;;4.82;88.21
48964;BME280;34776;48.180;16.420;2023-04-16T02:52:59;99613.25;;;4.82;88.53
48964;BME280;34776;48.180;16.420;2023-04-16T02:55:24;99607.19;;;4.80;88.74
48964;BME280;34776;48.180;16.420;2023-04-16T02:57:50;99616.03;;;4.77;88.88
48964;BME280;34776;48.180;16.420;2023-04-16T03:00:17;99612.56;;;4.77;88.95
48964;BME280;34776;48.180;16.420;2023-04-16T03:02:42;99621.34;;;4.76;89.04
48964;BME280;34776;48.180;16.420;2023-04-16T03:05:08;99615.25;;;4.74;88.92
48964;BME280;34776;48.180;16.420;2023-04-16T03:07:33;99623.16;;;4.74;88.98
48964;BME280;34776;48.180;16.420;2023-04-16T03:09:59;99617.88;;;4.74;88.97
48964;BME280;34776;48.180;16.420;2023-04-16T03:12:24;99624.91;;;4.75;88.97
48964;BME280;34776;48.180;16.420;2023-04-16T03:14:50;99630.16;;;4.75;89.07
48964;BME280;34776;48.180;16.420;2023-04-16T03:17:16;99629.19;;;4.77;89.01
48964;BME280;34776;48.180;16.420;2023-04-16T03:19:42;99629.97;;;4.81;89.00
48964;BME280;34776;48.180;16.420;2023-04-16T03:22:07;99624.59;;;4.84;88.96
48964;BME280;34776;48.180;16.420;2023-04-16T03:24:32;99629.75;;;4.87;88.98
48964;BME280;34776;48.180;16.420;2023-04-16T03:26:58;99640.41;;;4.84;88.81
48964;BME280;34776;48.180;16.420;2023-04-16T03:29:24;99640.44;;;4.82;88.88
48964;BME280;34776;48.180;16.420;2023-04-16T03:31:50;99638.72;;;4.81;88.88
48964;BME280;34776;48.180;16.420;2023-04-16T03:34:16;99633.50;;;4.80;89.06
48964;BME280;34776;48.180;16.420;2023-04-16T03:36:41;99634.47;;;4.77;89.09
48964;BME280;34776;48.180;16.420;2023-04-16T03:39:06;99636.25;;;4.77;89.15
48964;BME280;34776;48.180;16.420;2023-04-16T03:41:32;99639.75;;;4.76;89.16
48964;BME280;34776;48.180;16.420;2023-04-16T03:43:57;99647.66;;;4.76;89.12
48964;BME280;34776;48.180;16.420;2023-04-16T03:46:22;99654.84;;;4.71;89.23
48964;BME280;34776;48.180;16.420;2023-04-16T03:48:48;99653.22;;;4.66;89.74
48964;BME280;34776;48.180;16.420;2023-04-16T03:51:13;99660.19;;;4.67;89.73
48964;BME280;34776;48.180;16.420;2023-04-16T03:53:38;99663.69;;;4.68;89.81
48964;BME280;34776;48.180;16.420;2023-04-16T03:56:04;99673.28;;;4.71;89.86
48964;BME280;34776;48.180;16.420;2023-04-16T03:58:29;99674.91;;;4.75;89.88
48964;BME280;34776;48.180;16.420;2023-04-16T04:00:55;99673.91;;;4.79;90.23
48964;BME280;34776;48.180;16.420;2023-04-16T04:03:20;99688.47;;;4.91;90.47
48964;BME280;34776;48.180;16.420;2023-04-16T04:05:46;99685.50;;;5.01;90.58
48964;BME280;34776;48.180;16.420;2023-04-16T04:08:11;99689.59;;;5.10;90.75
48964;BME280;34776;48.180;16.420;2023-04-16T04:10:37;99695.38;;;5.23;90.72
48964;BME280;34776;48.180;16.420;2023-04-16T04:13:03;99689.69;;;5.35;90.77
48964;BME280;34776;48.180;16.420;2023-04-16T04:15:30;99698.16;;;5.46;90.42
48964;BME280;34776;48.180;16.420;2023-04-16T04:17:55;99700.44;;;5.57;90.29
48964;BME280;34776;48.180;16.420;2023-04-16T04:20:21;99702.06;;;5.61;89.87
48964;BME280;34776;48.180;16.420;2023-04-16T04:22:46;99701.28;;;5.58;89.64
48964;BME280;34776;48.180;16.420;2023-04-16T04:25:12;99713.66;;;5.56;89.91
48964;BME280;34776;48.180;16.420;2023-04-16T04:27:37;99711.00;;;5.56;90.06
48964;BME280;34776;48.180;16.420;2023-04-16T04:30:03;99710.78;;;5.63;90.14
48964;BME280;34776;48.180;16.420;2023-04-16T04:32:29;99712.28;;;5.70;89.97
48964;BME280;34776;48.180;16.420;2023-04-16T04:34:55;99716.28;;;5.82;89.89
48964;BME280;34776;48.180;16.420;2023-04-16T04:37:20;99716.09;;;5.88;89.69
48964;BME280;34776;48.180;16.420;2023-04-16T04:39:46;99725.53;;;5.96;89.44
48964;BME280;34776;48.180;16.420;2023-04-16T04:42:11;99719.22;;;6.01;89.04
48964;BME280;34776;48.180;16.420;2023-04-16T04:44:36;99721.88;;;6.00;88.89
48964;BME280;34776;48.180;16.420;2023-04-16T04:47:02;99738.53;;;6.02;88.69
48964;BME280;34776;48.180;16.420;2023-04-16T04:49:27;99735.94;;;6.00;88.72
48964;BME280;34776;48.180;16.420;2023-04-16T04:51:53;99747.38;;;6.01;88.74
48964;BME280;34776;48.180;16.420;2023-04-16T04:54:18;99747.44;;;5.98;88.65
48964;BME280;34776;48.180;16.420;2023-04-16T04:56:43;99746.38;;;6.03;88.91
48964;BME280;34776;48.180;16.420;2023-04-16T04:59:11;99745.22;;;6.12;89.15
48964;BME280;34776;48.180;16.420;2023-04-16T05:01:37;99751.91;;;6.22;88.73
48964;BME280;34776;48.180;16.420;2023-04-16T05:04:02;99755.34;;;6.24;88.78
48964;BME280;34776;48.180;16.420;2023-04-16T05:06:28;99749.66;;;6.37;88.56
48964;BME280;34776;48.180;16.420;2023-04-16T05:08:53;99752.75;;;6.48;88.54
48964;BME280;34776;48.180;16.420;2023-04-16T05:11:19;99756.00;;;6.56;88.30
48964;BME280;34776;48.180;16.420;2023-04-16T05:13:44;99759.31;;;6.61;88.10
48964;BME280;34776;48.180;16.420;2023-04-16T05:16:09;99766.22;;;6.65;87.94
48964;BME280;34776;48.180;16.420;2023-04-16T05:18:35;99762.41;;;6.74;87.95
48964;BME280;34776;48.180;16.420;2023-04-16T05:21:00;99765.53;;;6.84;87.69
48964;BME280;34776;48.180;16.420;2023-04-16T05:23:26;99759.13;;;6.91;87.47
48964;BME280;34776;48.180;16.420;2023-04-16T05:25:51;99761.56;;;6.97;87.29
48964;BME280;34776;48.180;16.420;2023-04-16T05:28:16;99764.88;;;7.02;87.07
48964;BME280;34776;48.180;16.420;2023-04-16T05:30:42;99763.13;;;7.01;86.90
48964;BME280;34776;48.180;16.420;2023-04-16T05:33:07;99762.00;;;7.08;87.14
48964;BME280;34776;48.180;16.420;2023-04-16T05:35:32;99760.84;;;7.16;87.26
48964;BME280;34776;48.180;16.420;2023-04-16T05:37:59;99773.47;;;7.31;87.16
48964;BME280;34776;48.180;16.420;2023-04-16T05:40:24;99773.91;;;7.42;86.86
48964;BME280;34776;48.180;16.420;2023-04-16T05:42:50;99763.66;;;7.57;86.63
48964;BME280;34776;48.180;16.420;2023-04-16T05:45:15;99766.53;;;7.72;86.25
48964;BME280;34776;48.180;16.420;2023-04-16T05:47:41;99767.59;;;7.90;85.87
48964;BME280;34776;48.180;16.420;2023-04-16T05:50:06;99769.56;;;8.06;85.30
48964;BME280;34776;48.180;16.420;2023-04-16T05:52:32;99769.22;;;8.15;84.63
48964;BME280;34776;48.180;16.420;2023-04-16T05:54:57;99763.47;;;8.26;84.40
48964;BME280;34776;48.180;16.420;2023-04-16T05:57:26;99761.16;;;8.39;83.98
48964;BME280;34776;48.180;16.420;2023-04-16T05:59:51;99765.78;;;8.54;83.29
48964;BME280;34776;48.180;16.420;2023-04-16T06:02:16;99765.41;;;8.63;82.69
48964;BME280;34776;48.180;16.420;2023-04-16T06:04:42;99774.72;;;8.72;82.20
48964;BME280;34776;48.180;16.420;2023-04-16T06:07:08;99773.91;;;8.90;82.13
48964;BME280;34776;48.180;16.420;2023-04-16T06:09:33;99778.44;;;9.07;81.44
48964;BME280;34776;48.180;16.420;2023-04-16T06:11:58;99782.47;;;9.16;80.67
48964;BME280;34776;48.180;16.420;2023-04-16T06:14:24;99776.66;;;9.27;80.57
48964;BME280;34776;48.180;16.420;2023-04-16T06:16:49;99778.97;;;9.34;80.39
48964;BME280;34776;48.180;16.420;2023-04-16T06:19:15;99783.81;;;9.44;79.65
48964;BME280;34776;48.180;16.420;2023-04-16T06:21:40;99785.69;;;9.61;79.46
48964;BME280;34776;48.180;16.420;2023-04-16T06:24:05;99793.69;;;9.78;79.01
48964;BME280;34776;48.180;16.420;2023-04-16T06:26:31;99792.09;;;9.74;78.24
48964;BME280;34776;48.180;16.420;2023-04-16T06:28:56;99789.69;;;9.69;77.81
48964;BME280;34776;48.180;16.420;2023-04-16T06:31:21;99792.72;;;9.62;77.90
48964;BME280;34776;48.180;16.420;2023-04-16T06:33:47;99794.69;;;9.75;77.92
48964;BME280;34776;48.180;16.420;2023-04-16T06:36:12;99795.69;;;9.92;78.11
48964;BME280;34776;48.180;16.420;2023-04-16T06:38:37;99799.91;;;10.13;77.54
48964;BME280;34776;48.180;16.420;2023-04-16T06:41:03;99799.25;;;10.27;76.57
48964;BME280;34776;48.180;16.420;2023-04-16T06:43:28;99803.19;;;10.38;76.34
48964;BME280;34776;48.180;16.420;2023-04-16T06:45:54;99795.19;;;10.55;75.66
48964;BME280;34776;48.180;16.420;2023-04-16T06:48:19;99790.63;;;10.74;75.30
48964;BME280;34776;48.180;16.420;2023-04-16T06:50:45;99798.44;;;10.95;74.55
48964;BME280;34776;48.180;16.420;2023-04-16T06:53:10;99794.72;;;11.31;73.77
48964;BME280;34776;48.180;16.420;2023-04-16T06:55:35;99794.41;;;11.85;72.80
48964;BME280;34776;48.180;16.420;2023-04-16T06:58:01;99797.59;;;12.37;71.28
48964;BME280;34776;48.180;16.420;2023-04-16T07:00:26;99795.78;;;12.83;70.05
48964;BME280;34776;48.180;16.420;2023-04-16T07:02:52;99793.53;;;13.34;68.29
48964;BME280;34776;48.180;16.420;2023-04-16T07:05:17;99800.31;;;13.81;67.17
48964;BME280;34776;48.180;16.420;2023-04-16T07:07:42;99797.94;;;14.04;65.26
48964;BME280;34776;48.180;16.420;2023-04-16T07:10:08;99807.63;;;14.19;64.51
48964;BME280;34776;48.180;16.420;2023-04-16T07:12:33;99810.84;;;14.24;63.89
48964;BME280;34776;48.180;16.420;2023-04-16T07:14:59;99816.03;;;14.53;63.62
48964;BME280;34776;48.180;16.420;2023-04-16T07:17:24;99814.22;;;14.93;62.89
48964;BME280;34776;48.180;16.420;2023-04-16T07:19:50;99814.41;;;15.03;61.47
48964;BME280;34776;48.180;16.420;2023-04-16T07:22:15;99821.50;;;15.04;61.54
48964;BME280;34776;48.180;16.420;2023-04-16T07:24:41;99817.69;;;15.45;60.40
48964;BME280;34776;48.180;16.420;2023-04-16T07:27:06;99821.66;;;15.52;59.49
48964;BME280;34776;48.180;16.420;2023-04-16T07:29:31;99828.00;;;15.38;60.03
48964;BME280;34776;48.180;16.420;2023-04-16T07:31:57;99836.88;;;15.39;60.04
48964;BME280;34776;48.180;16.420;2023-04-16T07:34:22;99832.09;;;15.68;59.68
48964;BME280;34776;48.180;16.420;2023-04-16T07:36:47;99833.53;;;16.11;58.69
48964;BME280;34776;48.180;16.420;2023-04-16T07:39:13;99829.56;;;16.63;58.00
48964;BME280;34776;48.180;16.420;2023-04-16T07:41:38;99834.84;;;17.00;56.51
48964;BME280;34776;48.180;16.420;2023-04-16T07:44:05;99837.53;;;17.00;56.36
48964;BME280;34776;48.180;16.420;2023-04-16T07:46:30;99838.25;;;16.91;56.12
48964;BME280;34776;48.180;16.420;2023-04-16T07:48:56;99831.56;;;16.61;55.84
48964;BME280;34776;48.180;16.420;2023-04-16T07:51:21;99828.72;;;16.27;56.75
48964;BME280;34776;48.180;16.420;2023-04-16T07:53:47;99833.78;;;16.43;56.51
48964;BME280;34776;48.180;16.420;2023-04-16T07:56:12;99835.56;;;16.31;56.00
48964;BME280;34776;48.180;16.420;2023-04-16T07:58:38;99836.97;;;16.48;55.90
48964;BME280;34776;48.180;16.420;2023-04-16T08:01:03;99832.09;;;16.18;55.28
48964;BME280;34776;48.180;16.420;2023-04-16T08:03:29;99835.09;;;15.89;55.46
48964;BME280;34776;48.180;16.420;2023-04-16T08:05:54;99832.59;;;15.75;56.21
48964;BME280;34776;48.180;16.420;2023-04-16T08:08:19;99830.75;;;15.62;56.27
48964;BME280;34776;48.180;16.420;2023-04-16T08:10:45;99839.03;;;15.34;56.43
48964;BME280;34776;48.180;16.420;2023-04-16T08:13:10;99840.31;;;15.28;56.78
48964;BME280;34776;48.180;16.420;2023-04-16T08:15:35;99841.81;;;15.32;56.47
48964;BME280;34776;48.180;16.420;2023-04-16T08:18:01;99839.88;;;16.21;55.70
48964;BME280;34776;48.180;16.420;2023-04-16T08:20:26;99838.50;;;17.78;53.01
48964;BME280;34776;48.180;16.420;2023-04-16T08:22:55;99834.44;;;18.82;49.63
48964;BME280;34776;48.180;16.420;2023-04-16T08:25:20;99832.56;;;19.24;48.21
48964;BME280;34776;48.180;16.420;2023-04-16T08:27:47;99840.38;;;19.89;46.88
48964;BME280;34776;48.180;16.420;2023-04-16T08:30:13;99843.53;;;21.21;45.46
48964;BME280;34776;48.180;16.420;2023-04-16T08:32:39;99845.91;;;22.44;42.83
48964;BME280;34776;48.180;16.420;2023-04-16T08:35:04;99841.50;;;22.43;42.35
48964;BME280;34776;48.180;16.420;2023-04-16T08:37:30;99841.34;;;21.99;42.57
48964;BME280;34776;48.180;16.420;2023-04-16T08:39:55;99833.16;;;21.63;42.29
48964;BME280;34776;48.180;16.420;2023-04-16T08:42:28;99835.25;;;21.22;42.55
48964;BME280;34776;48.180;16.420;2023-04-16T08:45:05;99838.16;;;20.43;43.22
48964;BME280;34776;48.180;16.420;2023-04-16T08:47:33;99843.22;;;19.97;43.75
48964;BME280;34776;48.180;16.420;2023-04-16T08:50:00;99848.28;;;20.90;42.80
48964;BME280;34776;48.180;16.420;2023-04-16T08:52:27;99837.16;;;21.87;41.40
48964;BME280;34776;48.180;16.420;2023-04-16T08:55:11;99837.84;;;21.89;38.24
48964;BME280;34776;48.180;16.420;2023-04-16T08:57:46;99843.78;;;21.27;41.21
48964;BME280;34776;48.180;16.420;2023-04-16T09:00:12;99845.78;;;21.25;40.41
48964;BME280;34776;48.180;16.420;2023-04-16T09:02:38;99844.94;;;21.90;40.07
48964;BME280;34776;48.180;16.420;2023-04-16T09:05:05;99853.25;;;22.34;39.52
48964;BME280;34776;48.180;16.420;2023-04-16T09:07:32;99847.28;;;21.85;39.25
48964;BME280;34776;48.180;16.420;2023-04-16T09:09:59;99849.84;;;20.63;40.95
48964;BME280;34776;48.180;16.420;2023-04-16T09:12:26;99850.88;;;19.61;42.29
48964;BME280;34776;48.180;16.420;2023-04-16T09:14:52;99867.59;;;18.82;43.38
48964;BME280;34776;48.180;16.420;2023-04-16T09:17:17;99871.31;;;18.26;43.83
48964;BME280;34776;48.180;16.420;2023-04-16T09:19:44;99874.91;;;17.82;44.67
48964;BME280;34776;48.180;16.420;2023-04-16T09:22:10;99873.47;;;17.44;44.73
48964;BME280;34776;48.180;16.420;2023-04-16T09:24:35;99870.16;;;17.29;45.89
48964;BME280;34776;48.180;16.420;2023-04-16T09:27:02;99871.47;;;17.23;45.53
48964;BME280;34776;48.180;16.420;2023-04-16T09:29:36;99881.47;;;17.10;45.25
48964;BME280;34776;48.180;16.420;2023-04-16T09:32:03;99883.28;;;16.74;45.92
48964;BME280;34776;48.180;16.420;2023-04-16T09:34:31;99879.88;;;16.72;45.00
48964;BME280;34776;48.180;16.420;2023-04-16T09:37:16;99883.72;;;16.57;43.49
48964;BME280;34776;48.180;16.420;2023-04-16T09:39:43;99880.94;;;16.34;45.86
48964;BME280;34776;48.180;16.420;2023-04-16T09:42:09;99878.84;;;15.90;45.96
48964;BME280;34776;48.180;16.420;2023-04-16T09:44:35;99886.56;;;15.43;46.61
48964;BME280;34776;48.180;16.420;2023-04-16T09:47:05;99896.94;;;15.22;47.48
48964;BME280;34776;48.180;16.420;2023-04-16T09:49:34;99889.25;;;15.30;47.63
48964;BME280;34776;48.180;16.420;2023-04-16T09:52:00;99889.47;;;15.40;47.61
48964;BME280;34776;48.180;16.420;2023-04-16T09:54:26;99896.44;;;15.30;48.01
48964;BME280;34776;48.180;16.420;2023-04-16T09:56:55;99905.97;;;15.08;48.29
48964;BME280;34776;48.180;16.420;2023-04-16T09:59:22;99899.75;;;15.08;48.28
48964;BME280;34776;48.180;16.420;2023-04-16T10:01:48;99908.38;;;14.98;48.21
48964;BME280;34776;48.180;16.420;2023-04-16T10:04:15;99911.03;;;14.86;48.72
48964;BME280;34776;48.180;16.420;2023-04-16T10:06:41;99906.03;;;14.94;48.43
48964;BME280;34776;48.180;16.420;2023-04-16T10:09:07;99896.66;;;15.27;48.10
48964;BME280;34776;48.180;16.420;2023-04-16T10:11:33;99901.03;;;15.53;47.37
48964;BME280;34776;48.180;16.420;2023-04-16T10:13:59;99899.84;;;15.57;47.34
48964;BME280;34776;48.180;16.420;2023-04-16T10:16:25;99890.84;;;15.84;47.36
48964;BME280;34776;48.180;16.420;2023-04-16T10:18:52;99893.53;;;15.84;47.01
48964;BME280;34776;48.180;16.420;2023-04-16T10:21:17;99890.19;;;15.68;46.56
48964;BME280;34776;48.180;16.420;2023-04-16T10:23:43;99894.47;;;15.70;46.84
48964;BME280;34776;48.180;16.420;2023-04-16T10:26:09;99894.88;;;16.02;47.19
48964;BME280;34776;48.180;16.420;2023-04-16T10:28:34;99892.28;;;16.62;46.20
48964;BME280;34776;48.180;16.420;2023-04-16T10:31:03;99885.38;;;17.06;45.04
48964;BME280;34776;48.180;16.420;2023-04-16T10:33:31;99880.53;;;17.22;44.85
48964;BME280;34776;48.180;16.420;2023-04-16T10:36:08;99886.63;;;17.24;43.93
48964;BME280;34776;48.180;16.420;2023-04-16T10:38:37;99880.78;;;17.31;44.99
48964;BME280;34776;48.180;16.420;2023-04-16T10:41:04;99879.53;;;17.23;44.71
48964;BME280;34776;48.180;16.420;2023-04-16T10:43:32;99882.22;;;17.12;45.11
48964;BME280;34776;48.180;16.420;2023-04-16T10:46:20;99880.28;;;17.25;43.65
48964;BME280;34776;48.180;16.420;2023-04-16T10:48:46;99882.47;;;17.32;44.78
48964;BME280;34776;48.180;16.420;2023-04-16T10:58:53;99884.84;;;16.41;46.11
48964;BME280;34776;48.180;16.420;2023-04-16T11:01:44;99888.63;;;16.02;46.63
48964;BME280;34776;48.180;16.420;2023-04-16T11:12:34;99897.03;;;15.97;47.08
48964;BME280;34776;48.180;16.420;2023-04-16T11:17:31;99894.66;;;16.06;47.03
48964;BME280;34776;48.180;16.420;2023-04-16T11:19:56;99892.06;;;16.17;47.13
48964;BME280;34776;48.180;16.420;2023-04-16T11:22:22;99887.31;;;16.44;47.04
48964;BME280;34776;48.180;16.420;2023-04-16T11:24:53;99889.75;;;16.72;45.56
48964;BME280;34776;48.180;16.420;2023-04-16T11:27:19;99890.34;;;16.75;45.98
48964;BME280;34776;48.180;16.420;2023-04-16T11:29:44;99893.97;;;16.63;45.37
48964;BME280;34776;48.180;16.420;2023-04-16T11:32:09;99897.25;;;16.55;45.82
48964;BME280;34776;48.180;16.420;2023-04-16T11:34:44;99896.19;;;16.21;45.05
48964;BME280;34776;48.180;16.420;2023-04-16T11:37:10;99888.47;;;15.92;46.12
48964;BME280;34776;48.180;16.420;2023-04-16T11:39:47;99899.97;;;15.69;45.79
48964;BME280;34776;48.180;16.420;2023-04-16T11:42:18;99896.31;;;15.70;46.23
48964;BME280;34776;48.180;16.420;2023-04-16T11:44:43;99883.78;;;16.20;46.20
48964;BME280;34776;48.180;16.420;2023-04-16T11:47:09;99887.25;;;16.81;45.29
48964;BME280;34776;48.180;16.420;2023-04-16T11:49:37;99893.69;;;17.14;45.24
48964;BME280;34776;48.180;16.420;2023-04-16T11:52:03;99892.38;;;17.42;44.64
48964;BME280;34776;48.180;16.420;2023-04-16T11:54:28;99887.75;;;17.56;43.78
48964;BME280;34776;48.180;16.420;2023-04-16T11:56:58;99888.38;;;17.48;44.14
48964;BME280;34776;48.180;16.420;2023-04-16T11:59:25;99881.78;;;17.52;44.69
48964;BME280;34776;48.180;16.420;2023-04-16T12:01:52;99894.69;;;17.36;43.37
48964;BME280;34776;48.180;16.420;2023-04-16T12:04:21;99892.75;;;17.27;43.75
48964;BME280;34776;48.180;16.420;2023-04-16T12:07:11;99900.53;;;17.18;42.84
48964;BME280;34776;48.180;16.420;2023-04-16T12:09:38;99893.00;;;17.35;43.67
48964;BME280;34776;48.180;16.420;2023-04-16T12:12:05;99885.69;;;17.48;43.64
48964;BME280;34776;48.180;16.420;2023-04-16T12:14:31;99886.28;;;17.52;43.16
48964;BME280;34776;48.180;16.420;2023-04-16T12:17:16;99887.16;;;17.52;40.95
48964;BME280;34776;48.180;16.420;2023-04-16T12:19:59;99890.78;;;17.29;42.11
48964;BME280;34776;48.180;16.420;2023-04-16T12:22:30;99895.72;;;16.99;42.99
48964;BME280;34776;48.180;16.420;2023-04-16T12:25:07;99892.41;;;16.84;42.75
48964;BME280;34776;48.180;16.420;2023-04-16T12:27:51;99890.91;;;16.80;42.61
48964;BME280;34776;48.180;16.420;2023-04-16T12:30:19;99886.81;;;16.99;43.25
48964;BME280;34776;48.180;16.420;2023-04-16T12:32:48;99888.53;;;17.11;42.99
48964;BME280;34776;48.180;16.420;2023-04-16T12:35:28;99882.25;;;17.46;41.79
48964;BME280;34776;48.180;16.420;2023-04-16T12:37:54;99885.06;;;17.56;42.37
48964;BME280;34776;48.180;16.420;2023-04-16T12:40:20;99881.53;;;17.33;43.00
48964;BME280;34776;48.180;16.420;2023-04-16T12:42:45;99886.19;;;16.95;43.02
48964;BME280;34776;48.180;16.420;2023-04-16T12:45:10;99885.53;;;16.80;43.00
48964;BME280;34776;48.180;16.420;2023-04-16T12:47:36;99875.53;;;16.58;42.60
48964;BME280;34776;48.180;16.420;2023-04-16T12:52:31;99883.50;;;16.36;43.82
48964;BME280;34776;48.180;16.420;2023-04-16T12:54:56;99872.13;;;16.32;43.64
48964;BME280;34776;48.180;16.420;2023-04-16T12:57:22;99876.75;;;16.30;43.86
48964;BME280;34776;48.180;16.420;2023-04-16T12:59:56;99876.81;;;16.17;43.68
48964;BME280;34776;48.180;16.420;2023-04-16T13:02:28;99876.69;;;16.19;43.24
48964;BME280;34776;48.180;16.420;2023-04-16T13:04:53;99872.06;;;16.21;43.37
48964;BME280;34776;48.180;16.420;2023-04-16T13:07:19;99866.38;;;16.50;43.11
48964;BME280;34776;48.180;16.420;2023-04-16T13:09:45;99872.28;;;16.66;42.46
48964;BME280;34776;48.180;16.420;2023-04-16T13:12:11;99867.88;;;16.89;42.04